Terminal Aerodrome Forecast
Issued by NWS

Home | Current Version | Previous Version | Text Only | Print | Product List | Glossary Off
Versions: 1 2 3 4 5 6 7 8 9 10 11 12 13 14

000
FTUS43 KGRB 031900 AAA
TAFCWA
TAF AMD
KCWA 031941Z 0320/0418 16007KT P6SM -SN BKN016
     FM032200 29010G18KT P6SM BKN025 BKN100
     FM040300 29012G20KT P6SM SCT100
     FM041600 29013G23KT P6SM BKN022=

USA.gov is the U.S. government's official web portal to all federal, state and local government web resources and services.